Weather at WILMINGTON RESIDENTIAL AIRPARK

Public forecast

Using degrees Celsius for public forecast. Weather courtesy of forecast.io.

Closest aviation weather report (METAR) to WILMINGTON RESIDENTIAL AIRPARK

Closest report is Woomera Airfield, 111.1 nm (205.7 km) NW.

2024/05/21 15:30 (retrieved 31 minutes ago)

YPWR 211530Z AUTO 13008KT 9999 // NCD 09/05 Q1028 RF000/0000

Closest aviation forecast (TAF) to WILMINGTON RESIDENTIAL AIRPARK

Forecast is more than 6 hours old.

Closest forecast is Woomera Airfield, 111.1 nm (205.7 km) NW.

2024/05/21 06:00 (retrieved 10 hours ago)

TAF YPWR 210525Z 2106/2200 13009KT CAVOK FM211900 09010KT CAVOK